sensor_id;sensor_type;location;lat;lon;timestamp;temperature;humidity
13598;DHT22;38563;54.258;12.574;2022-08-21T00:00:44;18.10;99.90
13598;DHT22;38563;54.258;12.574;2022-08-21T00:03:12;18.10;99.90
13598;DHT22;38563;54.258;12.574;2022-08-21T00:05:41;18.10;99.90
13598;DHT22;38563;54.258;12.574;2022-08-21T00:08:09;18.10;99.90
13598;DHT22;38563;54.258;12.574;2022-08-21T00:10:35;18.10;99.90
13598;DHT22;38563;54.258;12.574;2022-08-21T00:13:05;18.10;99.90
13598;DHT22;38563;54.258;12.574;2022-08-21T00:15:33;18.10;99.90
13598;DHT22;38563;54.258;12.574;2022-08-21T00:18:01;18.10;99.90
13598;DHT22;38563;54.258;12.574;2022-08-21T00:20:28;18.10;99.90
13598;DHT22;38563;54.258;12.574;2022-08-21T00:22:55;18.10;99.90
13598;DHT22;38563;54.258;12.574;2022-08-21T00:25:22;18.00;99.90
13598;DHT22;38563;54.258;12.574;2022-08-21T00:27:49;18.00;99.90
13598;DHT22;38563;54.258;12.574;2022-08-21T00:30:18;18.00;99.90
13598;DHT22;38563;54.258;12.574;2022-08-21T00:32:45;17.90;99.90
13598;DHT22;38563;54.258;12.574;2022-08-21T00:35:14;17.90;99.90
13598;DHT22;38563;54.258;12.574;2022-08-21T00:37:42;17.80;99.90
13598;DHT22;38563;54.258;12.574;2022-08-21T00:40:13;17.80;99.90
13598;DHT22;38563;54.258;12.574;2022-08-21T00:42:41;17.80;99.90
13598;DHT22;38563;54.258;12.574;2022-08-21T00:45:10;17.70;99.90
13598;DHT22;38563;54.258;12.574;2022-08-21T00:47:38;17.60;99.90
13598;DHT22;38563;54.258;12.574;2022-08-21T00:50:08;17.60;99.90
13598;DHT22;38563;54.258;12.574;2022-08-21T00:52:36;17.50;99.90
13598;DHT22;38563;54.258;12.574;2022-08-21T00:55:05;17.40;99.90
13598;DHT22;38563;54.258;12.574;2022-08-21T00:57:36;17.40;99.90
13598;DHT22;38563;54.258;12.574;2022-08-21T01:00:09;17.30;99.90
13598;DHT22;38563;54.258;12.574;2022-08-21T01:02:38;17.30;99.90
13598;DHT22;38563;54.258;12.574;2022-08-21T01:05:06;17.20;99.90
13598;DHT22;38563;54.258;12.574;2022-08-21T01:07:33;17.10;99.90
13598;DHT22;38563;54.258;12.574;2022-08-21T01:10:00;17.10;99.90
13598;DHT22;38563;54.258;12.574;2022-08-21T01:12:27;17.00;99.90
13598;DHT22;38563;54.258;12.574;2022-08-21T01:14:53;17.00;99.90
13598;DHT22;38563;54.258;12.574;2022-08-21T01:17:21;17.00;99.90
13598;DHT22;38563;54.258;12.574;2022-08-21T01:19:49;17.10;99.90
13598;DHT22;38563;54.258;12.574;2022-08-21T01:22:17;17.10;99.90
13598;DHT22;38563;54.258;12.574;2022-08-21T01:24:45;17.10;99.90
13598;DHT22;38563;54.258;12.574;2022-08-21T01:27:11;17.20;99.90
13598;DHT22;38563;54.258;12.574;2022-08-21T01:29:42;17.30;99.90
13598;DHT22;38563;54.258;12.574;2022-08-21T01:32:12;17.30;99.90
13598;DHT22;38563;54.258;12.574;2022-08-21T01:34:42;17.30;99.90
13598;DHT22;38563;54.258;12.574;2022-08-21T01:37:10;17.30;99.90
13598;DHT22;38563;54.258;12.574;2022-08-21T01:39:40;17.30;99.90
13598;DHT22;38563;54.258;12.574;2022-08-21T01:42:07;17.20;99.90
13598;DHT22;38563;54.258;12.574;2022-08-21T01:44:34;17.20;99.90
13598;DHT22;38563;54.258;12.574;2022-08-21T01:47:04;17.20;99.90
13598;DHT22;38563;54.258;12.574;2022-08-21T01:49:31;17.20;99.90
13598;DHT22;38563;54.258;12.574;2022-08-21T01:51:58;17.10;99.90
13598;DHT22;38563;54.258;12.574;2022-08-21T01:54:24;17.10;99.90
13598;DHT22;38563;54.258;12.574;2022-08-21T01:56:53;17.00;99.90
13598;DHT22;38563;54.258;12.574;2022-08-21T01:59:21;17.00;99.90
13598;DHT22;38563;54.258;12.574;2022-08-21T02:01:49;16.90;99.90
13598;DHT22;38563;54.258;12.574;2022-08-21T02:04:16;16.80;99.90
13598;DHT22;38563;54.258;12.574;2022-08-21T02:06:43;16.80;99.90
13598;DHT22;38563;54.258;12.574;2022-08-21T02:09:11;16.70;99.90
13598;DHT22;38563;54.258;12.574;2022-08-21T02:11:40;16.70;99.90
13598;DHT22;38563;54.258;12.574;2022-08-21T02:14:08;16.70;99.90
13598;DHT22;38563;54.258;12.574;2022-08-21T02:16:35;16.70;99.90
13598;DHT22;38563;54.258;12.574;2022-08-21T02:19:01;16.60;99.90
13598;DHT22;38563;54.258;12.574;2022-08-21T02:21:28;16.70;99.90
13598;DHT22;38563;54.258;12.574;2022-08-21T02:23:55;16.60;99.90
13598;DHT22;38563;54.258;12.574;2022-08-21T02:26:22;16.60;99.90
13598;DHT22;38563;54.258;12.574;2022-08-21T02:28:49;16.50;99.90
13598;DHT22;38563;54.258;12.574;2022-08-21T02:31:17;16.50;99.90
13598;DHT22;38563;54.258;12.574;2022-08-21T02:33:44;16.40;99.90
13598;DHT22;38563;54.258;12.574;2022-08-21T02:36:11;16.40;99.90
13598;DHT22;38563;54.258;12.574;2022-08-21T02:38:39;16.40;99.90
13598;DHT22;38563;54.258;12.574;2022-08-21T02:41:08;16.40;99.90
13598;DHT22;38563;54.258;12.574;2022-08-21T02:43:35;16.40;99.90
13598;DHT22;38563;54.258;12.574;2022-08-21T02:46:04;16.40;99.90
13598;DHT22;38563;54.258;12.574;2022-08-21T02:48:33;16.40;99.90
13598;DHT22;38563;54.258;12.574;2022-08-21T02:51:03;16.30;99.90
13598;DHT22;38563;54.258;12.574;2022-08-21T02:53:31;16.30;99.90
13598;DHT22;38563;54.258;12.574;2022-08-21T02:55:59;16.30;99.90
13598;DHT22;38563;54.258;12.574;2022-08-21T02:58:31;16.30;99.90
13598;DHT22;38563;54.258;12.574;2022-08-21T03:00:58;16.30;99.90
13598;DHT22;38563;54.258;12.574;2022-08-21T03:03:26;16.20;99.90
13598;DHT22;38563;54.258;12.574;2022-08-21T03:05:55;16.20;99.90
13598;DHT22;38563;54.258;12.574;2022-08-21T03:08:22;16.20;99.90
13598;DHT22;38563;54.258;12.574;2022-08-21T03:10:51;16.10;99.90
13598;DHT22;38563;54.258;12.574;2022-08-21T03:13:19;16.00;99.90
13598;DHT22;38563;54.258;12.574;2022-08-21T03:15:47;16.00;99.90
13598;DHT22;38563;54.258;12.574;2022-08-21T03:18:14;16.00;99.90
13598;DHT22;38563;54.258;12.574;2022-08-21T03:20:42;15.90;99.90
13598;DHT22;38563;54.258;12.574;2022-08-21T03:23:12;15.90;99.90
13598;DHT22;38563;54.258;12.574;2022-08-21T03:25:39;15.90;99.90
13598;DHT22;38563;54.258;12.574;2022-08-21T03:28:08;15.90;99.90
13598;DHT22;38563;54.258;12.574;2022-08-21T03:30:36;15.90;99.90
13598;DHT22;38563;54.258;12.574;2022-08-21T03:33:03;15.80;99.90
13598;DHT22;38563;54.258;12.574;2022-08-21T03:35:30;15.80;99.90
13598;DHT22;38563;54.258;12.574;2022-08-21T03:37:56;15.60;99.90
13598;DHT22;38563;54.258;12.574;2022-08-21T03:40:25;15.60;99.90
13598;DHT22;38563;54.258;12.574;2022-08-21T03:42:52;15.60;99.90
13598;DHT22;38563;54.258;12.574;2022-08-21T03:45:19;15.60;99.90
13598;DHT22;38563;54.258;12.574;2022-08-21T03:47:59;15.60;99.90
13598;DHT22;38563;54.258;12.574;2022-08-21T03:50:30;15.50;99.90
13598;DHT22;38563;54.258;12.574;2022-08-21T03:52:59;15.50;99.90
13598;DHT22;38563;54.258;12.574;2022-08-21T03:55:27;15.50;99.90
13598;DHT22;38563;54.258;12.574;2022-08-21T03:57:54;15.50;99.90
13598;DHT22;38563;54.258;12.574;2022-08-21T04:00:22;15.50;99.90
13598;DHT22;38563;54.258;12.574;2022-08-21T04:02:48;15.50;99.90
13598;DHT22;38563;54.258;12.574;2022-08-21T04:05:18;15.50;99.90
13598;DHT22;38563;54.258;12.574;2022-08-21T04:07:53;15.40;99.90
13598;DHT22;38563;54.258;12.574;2022-08-21T04:10:20;15.40;99.90
13598;DHT22;38563;54.258;12.574;2022-08-21T04:12:51;15.50;99.90
13598;DHT22;38563;54.258;12.574;2022-08-21T04:15:17;15.50;99.90
13598;DHT22;38563;54.258;12.574;2022-08-21T04:17:44;15.50;99.90
13598;DHT22;38563;54.258;12.574;2022-08-21T04:20:11;15.60;99.90
13598;DHT22;38563;54.258;12.574;2022-08-21T04:22:38;15.60;99.90
13598;DHT22;38563;54.258;12.574;2022-08-21T04:25:06;15.70;99.90
13598;DHT22;38563;54.258;12.574;2022-08-21T04:27:33;15.90;99.90
13598;DHT22;38563;54.258;12.574;2022-08-21T04:30:02;16.00;99.90
13598;DHT22;38563;54.258;12.574;2022-08-21T04:32:29;16.20;99.90
13598;DHT22;38563;54.258;12.574;2022-08-21T04:34:59;16.20;99.90
13598;DHT22;38563;54.258;12.574;2022-08-21T04:37:26;16.30;99.90
13598;DHT22;38563;54.258;12.574;2022-08-21T04:39:54;16.40;99.90
13598;DHT22;38563;54.258;12.574;2022-08-21T04:42:22;16.50;99.90
13598;DHT22;38563;54.258;12.574;2022-08-21T04:44:49;16.50;99.90
13598;DHT22;38563;54.258;12.574;2022-08-21T04:47:17;16.60;99.90
13598;DHT22;38563;54.258;12.574;2022-08-21T04:49:44;16.60;99.90
13598;DHT22;38563;54.258;12.574;2022-08-21T04:52:11;16.60;99.90
13598;DHT22;38563;54.258;12.574;2022-08-21T04:54:40;16.60;99.90
13598;DHT22;38563;54.258;12.574;2022-08-21T04:57:09;16.70;99.90
13598;DHT22;38563;54.258;12.574;2022-08-21T04:59:39;16.70;99.90
13598;DHT22;38563;54.258;12.574;2022-08-21T05:02:08;16.80;99.90
13598;DHT22;38563;54.258;12.574;2022-08-21T05:04:40;16.90;99.90
13598;DHT22;38563;54.258;12.574;2022-08-21T05:07:12;17.00;99.90
13598;DHT22;38563;54.258;12.574;2022-08-21T05:09:40;17.20;99.90
13598;DHT22;38563;54.258;12.574;2022-08-21T05:12:08;17.20;99.90
13598;DHT22;38563;54.258;12.574;2022-08-21T05:14:34;17.20;99.90
13598;DHT22;38563;54.258;12.574;2022-08-21T05:17:01;17.30;99.90
13598;DHT22;38563;54.258;12.574;2022-08-21T05:19:28;17.40;99.90
13598;DHT22;38563;54.258;12.574;2022-08-21T05:21:56;17.40;99.90
13598;DHT22;38563;54.258;12.574;2022-08-21T05:24:23;17.50;99.90
13598;DHT22;38563;54.258;12.574;2022-08-21T05:26:50;17.50;99.90
13598;DHT22;38563;54.258;12.574;2022-08-21T05:29:17;17.60;99.90
13598;DHT22;38563;54.258;12.574;2022-08-21T05:31:45;17.70;99.90
13598;DHT22;38563;54.258;12.574;2022-08-21T05:34:12;17.80;99.90
13598;DHT22;38563;54.258;12.574;2022-08-21T05:36:39;17.90;99.90
13598;DHT22;38563;54.258;12.574;2022-08-21T05:39:07;18.10;99.90
13598;DHT22;38563;54.258;12.574;2022-08-21T05:41:33;18.10;99.90
13598;DHT22;38563;54.258;12.574;2022-08-21T05:44:00;18.20;99.90
13598;DHT22;38563;54.258;12.574;2022-08-21T05:46:27;18.30;99.90
13598;DHT22;38563;54.258;12.574;2022-08-21T05:48:54;18.40;99.90
13598;DHT22;38563;54.258;12.574;2022-08-21T05:51:20;18.40;99.90
13598;DHT22;38563;54.258;12.574;2022-08-21T05:53:47;18.50;99.90
13598;DHT22;38563;54.258;12.574;2022-08-21T05:56:15;18.50;99.90
13598;DHT22;38563;54.258;12.574;2022-08-21T05:58:42;18.50;99.90
13598;DHT22;38563;54.258;12.574;2022-08-21T06:01:09;18.50;99.90
13598;DHT22;38563;54.258;12.574;2022-08-21T06:03:38;18.50;99.90
13598;DHT22;38563;54.258;12.574;2022-08-21T06:06:05;18.50;99.90
13598;DHT22;38563;54.258;12.574;2022-08-21T06:08:33;18.50;99.90
13598;DHT22;38563;54.258;12.574;2022-08-21T06:11:00;18.60;99.90
13598;DHT22;38563;54.258;12.574;2022-08-21T06:13:30;18.60;99.90
13598;DHT22;38563;54.258;12.574;2022-08-21T06:16:05;18.60;99.90
13598;DHT22;38563;54.258;12.574;2022-08-21T06:18:33;18.60;99.90
13598;DHT22;38563;54.258;12.574;2022-08-21T06:21:00;18.70;99.90
13598;DHT22;38563;54.258;12.574;2022-08-21T06:23:26;18.70;99.90
13598;DHT22;38563;54.258;12.574;2022-08-21T06:25:53;18.60;99.90
13598;DHT22;38563;54.258;12.574;2022-08-21T06:28:20;18.70;99.90
13598;DHT22;38563;54.258;12.574;2022-08-21T06:30:48;18.70;99.90
13598;DHT22;38563;54.258;12.574;2022-08-21T06:33:15;18.70;99.90
13598;DHT22;38563;54.258;12.574;2022-08-21T06:35:41;18.60;99.90
13598;DHT22;38563;54.258;12.574;2022-08-21T06:38:08;18.60;99.90
13598;DHT22;38563;54.258;12.574;2022-08-21T06:40:36;18.70;99.90
13598;DHT22;38563;54.258;12.574;2022-08-21T06:43:07;18.60;99.90
13598;DHT22;38563;54.258;12.574;2022-08-21T06:45:35;18.60;99.90
13598;DHT22;38563;54.258;12.574;2022-08-21T06:48:04;18.60;99.90
13598;DHT22;38563;54.258;12.574;2022-08-21T06:50:32;18.70;99.90
13598;DHT22;38563;54.258;12.574;2022-08-21T06:53:01;18.70;99.90
13598;DHT22;38563;54.258;12.574;2022-08-21T06:55:28;18.70;99.90
13598;DHT22;38563;54.258;12.574;2022-08-21T06:57:55;18.80;99.90
13598;DHT22;38563;54.258;12.574;2022-08-21T07:00:22;18.80;99.90
13598;DHT22;38563;54.258;12.574;2022-08-21T07:02:48;18.90;99.90
13598;DHT22;38563;54.258;12.574;2022-08-21T07:05:17;18.90;99.90
13598;DHT22;38563;54.258;12.574;2022-08-21T07:07:44;18.90;99.90
13598;DHT22;38563;54.258;12.574;2022-08-21T07:10:11;18.90;99.90
13598;DHT22;38563;54.258;12.574;2022-08-21T07:12:38;19.00;99.90
13598;DHT22;38563;54.258;12.574;2022-08-21T07:15:05;19.00;99.90
13598;DHT22;38563;54.258;12.574;2022-08-21T07:17:32;19.10;99.90
13598;DHT22;38563;54.258;12.574;2022-08-21T07:19:59;19.10;99.90
13598;DHT22;38563;54.258;12.574;2022-08-21T07:22:27;19.10;99.90
13598;DHT22;38563;54.258;12.574;2022-08-21T07:24:53;19.20;99.90
13598;DHT22;38563;54.258;12.574;2022-08-21T07:27:20;19.20;99.90
13598;DHT22;38563;54.258;12.574;2022-08-21T07:29:47;19.20;99.90
13598;DHT22;38563;54.258;12.574;2022-08-21T07:32:14;19.30;99.90
13598;DHT22;38563;54.258;12.574;2022-08-21T07:34:41;19.40;99.90
13598;DHT22;38563;54.258;12.574;2022-08-21T07:37:08;19.50;99.90
13598;DHT22;38563;54.258;12.574;2022-08-21T07:39:36;19.50;99.90
13598;DHT22;38563;54.258;12.574;2022-08-21T07:42:03;19.60;99.90
13598;DHT22;38563;54.258;12.574;2022-08-21T07:44:30;19.70;99.90
13598;DHT22;38563;54.258;12.574;2022-08-21T07:46:57;19.80;99.90
13598;DHT22;38563;54.258;12.574;2022-08-21T07:49:23;19.90;99.90
13598;DHT22;38563;54.258;12.574;2022-08-21T07:51:50;19.90;99.90
13598;DHT22;38563;54.258;12.574;2022-08-21T07:54:17;19.90;99.90
13598;DHT22;38563;54.258;12.574;2022-08-21T07:56:45;19.80;99.90
13598;DHT22;38563;54.258;12.574;2022-08-21T07:59:12;19.90;99.90
13598;DHT22;38563;54.258;12.574;2022-08-21T08:01:38;20.00;99.90
13598;DHT22;38563;54.258;12.574;2022-08-21T08:04:06;20.00;99.90
13598;DHT22;38563;54.258;12.574;2022-08-21T08:06:32;20.10;99.90
13598;DHT22;38563;54.258;12.574;2022-08-21T08:08:59;20.30;99.90
13598;DHT22;38563;54.258;12.574;2022-08-21T08:11:27;20.30;99.90
13598;DHT22;38563;54.258;12.574;2022-08-21T08:13:55;20.30;99.90
13598;DHT22;38563;54.258;12.574;2022-08-21T08:16:23;20.30;99.90
13598;DHT22;38563;54.258;12.574;2022-08-21T08:18:50;20.30;99.90
13598;DHT22;38563;54.258;12.574;2022-08-21T08:21:17;20.30;99.90
13598;DHT22;38563;54.258;12.574;2022-08-21T08:23:47;20.30;99.90
13598;DHT22;38563;54.258;12.574;2022-08-21T08:26:14;20.40;99.90
13598;DHT22;38563;54.258;12.574;2022-08-21T08:28:41;20.60;99.90
13598;DHT22;38563;54.258;12.574;2022-08-21T08:31:10;20.70;99.90
13598;DHT22;38563;54.258;12.574;2022-08-21T08:33:36;20.80;99.90
13598;DHT22;38563;54.258;12.574;2022-08-21T08:36:03;21.00;99.90
13598;DHT22;38563;54.258;12.574;2022-08-21T08:38:30;20.90;99.90
13598;DHT22;38563;54.258;12.574;2022-08-21T08:41:02;20.90;99.90
13598;DHT22;38563;54.258;12.574;2022-08-21T08:43:32;21.00;99.90
13598;DHT22;38563;54.258;12.574;2022-08-21T08:46:03;21.00;99.90
13598;DHT22;38563;54.258;12.574;2022-08-21T08:48:39;21.00;99.90
13598;DHT22;38563;54.258;12.574;2022-08-21T08:51:11;21.00;99.90
13598;DHT22;38563;54.258;12.574;2022-08-21T08:53:45;21.10;99.90
13598;DHT22;38563;54.258;12.574;2022-08-21T08:56:13;21.40;99.90
13598;DHT22;38563;54.258;12.574;2022-08-21T08:58:42;21.80;99.90
13598;DHT22;38563;54.258;12.574;2022-08-21T09:01:13;22.20;99.90
13598;DHT22;38563;54.258;12.574;2022-08-21T09:03:44;22.50;99.90
13598;DHT22;38563;54.258;12.574;2022-08-21T09:06:24;22.70;99.90
13598;DHT22;38563;54.258;12.574;2022-08-21T09:09:01;22.80;99.90
13598;DHT22;38563;54.258;12.574;2022-08-21T09:11:32;23.00;99.90
13598;DHT22;38563;54.258;12.574;2022-08-21T09:14:07;23.20;99.90
13598;DHT22;38563;54.258;12.574;2022-08-21T09:16:41;23.60;99.90
13598;DHT22;38563;54.258;12.574;2022-08-21T09:19:24;23.90;99.90
13598;DHT22;38563;54.258;12.574;2022-08-21T09:21:57;23.60;99.90
13598;DHT22;38563;54.258;12.574;2022-08-21T09:24:41;23.60;99.90
13598;DHT22;38563;54.258;12.574;2022-08-21T09:27:15;23.70;99.90
13598;DHT22;38563;54.258;12.574;2022-08-21T09:29:44;23.60;99.90
13598;DHT22;38563;54.258;12.574;2022-08-21T09:32:16;23.60;99.90
13598;DHT22;38563;54.258;12.574;2022-08-21T09:34:56;23.50;99.90
13598;DHT22;38563;54.258;12.574;2022-08-21T09:37:23;23.20;99.90
13598;DHT22;38563;54.258;12.574;2022-08-21T09:39:50;23.00;99.90
13598;DHT22;38563;54.258;12.574;2022-08-21T09:42:23;22.50;99.90
13598;DHT22;38563;54.258;12.574;2022-08-21T09:45:06;22.30;99.90
13598;DHT22;38563;54.258;12.574;2022-08-21T09:47:33;22.30;99.90
13598;DHT22;38563;54.258;12.574;2022-08-21T09:50:10;22.30;99.90
13598;DHT22;38563;54.258;12.574;2022-08-21T09:52:44;22.00;99.90
13598;DHT22;38563;54.258;12.574;2022-08-21T09:55:16;22.00;99.90
13598;DHT22;38563;54.258;12.574;2022-08-21T09:57:59;21.90;99.90
13598;DHT22;38563;54.258;12.574;2022-08-21T10:00:29;21.80;99.90
13598;DHT22;38563;54.258;12.574;2022-08-21T10:03:08;21.80;99.90
13598;DHT22;38563;54.258;12.574;2022-08-21T10:05:37;22.00;99.90
13598;DHT22;38563;54.258;12.574;2022-08-21T10:08:04;22.10;99.90
13598;DHT22;38563;54.258;12.574;2022-08-21T10:10:36;22.10;99.90
13598;DHT22;38563;54.258;12.574;2022-08-21T10:13:08;22.10;99.90
13598;DHT22;38563;54.258;12.574;2022-08-21T10:15:47;22.10;99.90
13598;DHT22;38563;54.258;12.574;2022-08-21T10:18:22;22.20;99.90
13598;DHT22;38563;54.258;12.574;2022-08-21T10:20:56;22.00;99.90
13598;DHT22;38563;54.258;12.574;2022-08-21T10:23:36;21.80;99.90
13598;DHT22;38563;54.258;12.574;2022-08-21T10:26:10;21.90;99.90
13598;DHT22;38563;54.258;12.574;2022-08-21T10:28:49;22.00;99.90
13598;DHT22;38563;54.258;12.574;2022-08-21T10:31:24;22.10;99.90
13598;DHT22;38563;54.258;12.574;2022-08-21T10:34:10;22.40;99.90
13598;DHT22;38563;54.258;12.574;2022-08-21T10:36:58;22.60;99.90
13598;DHT22;38563;54.258;12.574;2022-08-21T10:39:32;22.70;99.90
13598;DHT22;38563;54.258;12.574;2022-08-21T10:42:18;22.90;99.90
13598;DHT22;38563;54.258;12.574;2022-08-21T10:44:54;23.10;99.90
13598;DHT22;38563;54.258;12.574;2022-08-21T10:47:30;22.90;99.90
13598;DHT22;38563;54.258;12.574;2022-08-21T10:50:04;22.80;99.90
13598;DHT22;38563;54.258;12.574;2022-08-21T10:52:51;23.00;99.90
13598;DHT22;38563;54.258;12.574;2022-08-21T10:55:22;23.00;99.90
13598;DHT22;38563;54.258;12.574;2022-08-21T10:57:56;23.40;99.90
13598;DHT22;38563;54.258;12.574;2022-08-21T11:00:28;23.20;99.90
13598;DHT22;38563;54.258;12.574;2022-08-21T11:03:00;23.40;99.90
13598;DHT22;38563;54.258;12.574;2022-08-21T11:05:31;23.40;99.90
13598;DHT22;38563;54.258;12.574;2022-08-21T11:08:03;23.40;99.90
13598;DHT22;38563;54.258;12.574;2022-08-21T11:10:37;23.40;99.90
13598;DHT22;38563;54.258;12.574;2022-08-21T11:13:11;23.60;99.90
13598;DHT22;38563;54.258;12.574;2022-08-21T11:15:43;23.70;99.90
13598;DHT22;38563;54.258;12.574;2022-08-21T11:18:22;23.80;99.90
13598;DHT22;38563;54.258;12.574;2022-08-21T11:20:59;23.60;99.90
13598;DHT22;38563;54.258;12.574;2022-08-21T11:23:33;23.60;99.90
13598;DHT22;38563;54.258;12.574;2022-08-21T11:26:07;23.70;99.90
13598;DHT22;38563;54.258;12.574;2022-08-21T11:28:37;23.80;99.90
13598;DHT22;38563;54.258;12.574;2022-08-21T11:31:16;24.10;99.90
13598;DHT22;38563;54.258;12.574;2022-08-21T11:33:56;24.20;99.90
13598;DHT22;38563;54.258;12.574;2022-08-21T11:36:34;24.30;99.90
13598;DHT22;38563;54.258;12.574;2022-08-21T11:39:13;24.40;99.90
13598;DHT22;38563;54.258;12.574;2022-08-21T11:41:48;24.50;99.90
13598;DHT22;38563;54.258;12.574;2022-08-21T11:44:27;24.40;99.90
13598;DHT22;38563;54.258;12.574;2022-08-21T11:47:01;24.50;99.90
13598;DHT22;38563;54.258;12.574;2022-08-21T11:49:47;24.70;99.90
13598;DHT22;38563;54.258;12.574;2022-08-21T11:52:20;24.60;99.90
13598;DHT22;38563;54.258;12.574;2022-08-21T11:54:55;24.60;99.90
13598;DHT22;38563;54.258;12.574;2022-08-21T11:57:27;24.40;99.90
13598;DHT22;38563;54.258;12.574;2022-08-21T11:59:59;24.40;99.90
13598;DHT22;38563;54.258;12.574;2022-08-21T12:02:30;24.60;99.90
13598;DHT22;38563;54.258;12.574;2022-08-21T12:05:03;24.50;99.90
13598;DHT22;38563;54.258;12.574;2022-08-21T12:07:33;24.30;99.90
13598;DHT22;38563;54.258;12.574;2022-08-21T12:10:05;24.30;99.90
13598;DHT22;38563;54.258;12.574;2022-08-21T12:12:34;24.40;99.90
13598;DHT22;38563;54.258;12.574;2022-08-21T12:15:24;24.40;99.90
13598;DHT22;38563;54.258;12.574;2022-08-21T12:17:55;24.60;99.90
13598;DHT22;38563;54.258;12.574;2022-08-21T12:20:45;24.50;99.90
13598;DHT22;38563;54.258;12.574;2022-08-21T12:23:28;24.40;99.90
13598;DHT22;38563;54.258;12.574;2022-08-21T12:26:09;24.40;99.90
13598;DHT22;38563;54.258;12.574;2022-08-21T12:28:37;24.60;99.90
13598;DHT22;38563;54.258;12.574;2022-08-21T12:31:17;24.60;99.90
13598;DHT22;38563;54.258;12.574;2022-08-21T12:33:51;24.30;99.90
13598;DHT22;38563;54.258;12.574;2022-08-21T12:36:21;24.10;99.90
13598;DHT22;38563;54.258;12.574;2022-08-21T12:38:54;23.80;99.90
13598;DHT22;38563;54.258;12.574;2022-08-21T12:41:27;23.80;99.90
13598;DHT22;38563;54.258;12.574;2022-08-21T12:43:57;23.90;99.90
13598;DHT22;38563;54.258;12.574;2022-08-21T12:46:30;23.80;99.90
13598;DHT22;38563;54.258;12.574;2022-08-21T12:49:02;23.90;99.90
13598;DHT22;38563;54.258;12.574;2022-08-21T12:51:33;24.00;99.90
13598;DHT22;38563;54.258;12.574;2022-08-21T12:54:02;24.10;99.90
13598;DHT22;38563;54.258;12.574;2022-08-21T12:56:32;23.80;99.90
13598;DHT22;38563;54.258;12.574;2022-08-21T12:59:03;23.70;99.90
13598;DHT22;38563;54.258;12.574;2022-08-21T13:01:33;23.90;99.90
13598;DHT22;38563;54.258;12.574;2022-08-21T13:04:02;24.60;99.90
13598;DHT22;38563;54.258;12.574;2022-08-21T13:06:37;25.30;99.90
13598;DHT22;38563;54.258;12.574;2022-08-21T13:09:07;25.70;99.90
13598;DHT22;38563;54.258;12.574;2022-08-21T13:11:36;26.10;99.90
13598;DHT22;38563;54.258;12.574;2022-08-21T13:14:03;26.20;99.90
13598;DHT22;38563;54.258;12.574;2022-08-21T13:16:31;26.30;99.90
13598;DHT22;38563;54.258;12.574;2022-08-21T13:19:00;26.20;99.90
13598;DHT22;38563;54.258;12.574;2022-08-21T13:21:29;25.70;99.90
13598;DHT22;38563;54.258;12.574;2022-08-21T13:24:10;26.00;99.90
13598;DHT22;38563;54.258;12.574;2022-08-21T13:26:40;26.30;99.90
13598;DHT22;38563;54.258;12.574;2022-08-21T13:29:07;26.70;99.90
13598;DHT22;38563;54.258;12.574;2022-08-21T13:31:37;26.90;99.90
13598;DHT22;38563;54.258;12.574;2022-08-21T13:34:08;27.10;99.90
13598;DHT22;38563;54.258;12.574;2022-08-21T13:36:41;27.30;99.90
13598;DHT22;38563;54.258;12.574;2022-08-21T13:39:11;27.00;99.90
13598;DHT22;38563;54.258;12.574;2022-08-21T13:41:41;26.70;99.90
13598;DHT22;38563;54.258;12.574;2022-08-21T13:44:16;26.50;99.90
13598;DHT22;38563;54.258;12.574;2022-08-21T13:46:44;26.30;99.90
13598;DHT22;38563;54.258;12.574;2022-08-21T13:49:14;26.30;99.90
13598;DHT22;38563;54.258;12.574;2022-08-21T13:51:43;26.30;99.90
13598;DHT22;38563;54.258;12.574;2022-08-21T13:54:21;26.20;99.90
13598;DHT22;38563;54.258;12.574;2022-08-21T13:56:50;26.50;99.90
13598;DHT22;38563;54.258;12.574;2022-08-21T13:59:28;26.80;99.90
13598;DHT22;38563;54.258;12.574;2022-08-21T14:01:57;26.50;99.90
13598;DHT22;38563;54.258;12.574;2022-08-21T14:04:31;26.40;99.90
13598;DHT22;38563;54.258;12.574;2022-08-21T14:06:59;26.40;99.90
13598;DHT22;38563;54.258;12.574;2022-08-21T14:09:30;26.80;99.90
13598;DHT22;38563;54.258;12.574;2022-08-21T14:12:01;26.60;99.90
13598;DHT22;38563;54.258;12.574;2022-08-21T14:14:31;26.50;99.90
13598;DHT22;38563;54.258;12.574;2022-08-21T14:17:00;26.40;99.90
13598;DHT22;38563;54.258;12.574;2022-08-21T14:19:35;26.40;99.90
13598;DHT22;38563;54.258;12.574;2022-08-21T14:22:28;26.40;99.90
13598;DHT22;38563;54.258;12.574;2022-08-21T14:25:00;26.20;99.90
13598;DHT22;38563;54.258;12.574;2022-08-21T14:27:29;25.90;99.90
13598;DHT22;38563;54.258;12.574;2022-08-21T14:29:59;26.30;99.90
13598;DHT22;38563;54.258;12.574;2022-08-21T14:32:29;26.40;99.90
13598;DHT22;38563;54.258;12.574;2022-08-21T14:34:57;26.40;99.90
13598;DHT22;38563;54.258;12.574;2022-08-21T14:37:24;26.40;99.90
13598;DHT22;38563;54.258;12.574;2022-08-21T14:39:51;26.20;99.90
13598;DHT22;38563;54.258;12.574;2022-08-21T14:42:18;26.10;99.90
13598;DHT22;38563;54.258;12.574;2022-08-21T14:44:46;26.30;99.90
13598;DHT22;38563;54.258;12.574;2022-08-21T14:47:13;26.40;99.90
13598;DHT22;38563;54.258;12.574;2022-08-21T14:49:39;26.50;99.90
13598;DHT22;38563;54.258;12.574;2022-08-21T14:52:06;26.50;99.90
13598;DHT22;38563;54.258;12.574;2022-08-21T14:54:33;26.70;99.90
13598;DHT22;38563;54.258;12.574;2022-08-21T14:57:02;26.90;99.90
13598;DHT22;38563;54.258;12.574;2022-08-21T14:59:30;27.00;99.90
13598;DHT22;38563;54.258;12.574;2022-08-21T15:02:00;27.30;99.90
13598;DHT22;38563;54.258;12.574;2022-08-21T15:04:27;27.50;99.90
13598;DHT22;38563;54.258;12.574;2022-08-21T15:06:53;27.40;99.90
13598;DHT22;38563;54.258;12.574;2022-08-21T15:09:20;27.80;99.90
13598;DHT22;38563;54.258;12.574;2022-08-21T15:11:47;28.00;99.90
13598;DHT22;38563;54.258;12.574;2022-08-21T15:14:18;28.20;99.90
13598;DHT22;38563;54.258;12.574;2022-08-21T15:16:46;28.30;99.90
13598;DHT22;38563;54.258;12.574;2022-08-21T15:19:15;28.30;99.90
13598;DHT22;38563;54.258;12.574;2022-08-21T15:21:41;28.20;99.90
13598;DHT22;38563;54.258;12.574;2022-08-21T15:24:08;28.10;99.90
13598;DHT22;38563;54.258;12.574;2022-08-21T15:26:35;27.70;99.90
13598;DHT22;38563;54.258;12.574;2022-08-21T15:29:03;27.80;99.90
13598;DHT22;38563;54.258;12.574;2022-08-21T15:31:31;27.60;99.90